Aeroporto :
LOGIN :

Iscrizione | Disclaimer

   EN    FR    IT 

 










Sommario :    VFR   VFR Marginale   IFR   IFR Intensivo   IFR Molto Intensivo
Visibilità : 
Base nubi : 
>= 8 km
>= 3000ft
5 / 8 km
1000 / 3000 ft
1500m / 5 km
500 / 1000 ft
800 / 1500m
200 / 500 ft
< 800m
< 200 ft
Simboli :   Temporali  Nebbia  Neve Forte  Precipitazioni Forti  Vento > 20 kt
SIGMETs :   Varie  Temporali  Ghiacco  Turbolenza  Onda orograficha  Ceneri Vulcaniche







- Altitudine del aeroporto : 297 ft


EGVP - Middle Wallop

ULTIMO METAR :
  • 240650Z 07004KT 6000 HZ FEW080 BKN090 12/08 Q0991 WHT BECMG 8000 SCT020 WHT

METARs OBSOLETI :
  • 240550Z 09004KT 7000 HZ FEW040 SCT050 BKN090 11/08 Q0991 WHT
  • 240450Z 09003KT 7000 HZ FEW070 BKN090 11/07 Q0992 WHT

TAF TAF EGVP
Valido dal 24 a 06 ore il 24 a 15 ore UTC


240603Z 2406/2415 09002KT 7000 HZ BKN040
BECMG 2406/2408 9999 NSW
BECMG 2408/2410 BKN020
TEMPO 2408/2415 7000 SHRA SCT010
BECMG 2410/2412 21015G25KT
PROB30
TEMPO 2411/2415 4000 +SHRA SCT005 BKN012CB
ATIS : +44 1980 674 142
Nessun NOTAM noto per questo aeroporto.



MetMap, La meteo Aeronautica in un colpo d'occhio ! - Copyright ORBIFLY Dicembre 2007 - Disclaimer

ORBIFLY MET'MAP TEAM :

Programmazione e sviluppo : Alexandra Zaïnal
Concezione e sviluppo : Baudouin d'Aumeries
Co-Programmazione e sviluppo : Marc-Olivier Méhu
Supporto tecnico e logistico : Manuel Goepfert
Aiuto per la traduzione : Arnaldo La Scala

Contatto : metmap@orbifly.com




FONTI E CREDITI :

   NOAA